Time;durP1;ratioP1;P1;durP2;ratioP2;P2;SDS_P1;SDS_P2;PMS_P1;PMS_P2;Temp;Humidity;BMP_temperature;BMP_pressure;BME280_temperature;BME280_humidity;BME280_pressure;Samples;Min_cycle;Max_cycle;Signal;HPM_P1;HPM_P2
2022/07/12 00:01:34;;;;;;;11.63;4.57;;;11.30;85.20;;;;;;5064023;28;20638;-81
2022/07/12 00:04:02;;;;;;;6.70;3.53;;;11.60;84.90;;;;;;5054830;28;20236;-78
2022/07/12 00:06:29;;;;;;;5.90;3.90;;;11.60;83.80;;;;;;5063409;28;20264;-79
2022/07/12 00:08:57;;;;;;;4.33;3.10;;;11.70;84.00;;;;;;5065302;28;20202;-77
2022/07/12 00:11:25;;;;;;;5.33;3.43;;;11.80;83.10;;;;;;5077398;28;20270;-81
2022/07/12 00:13:53;;;;;;;4.97;3.07;;;11.80;82.70;;;;;;5053304;28;20232;-79
2022/07/12 00:16:21;;;;;;;4.93;3.13;;;11.90;82.60;;;;;;5060325;28;20186;-80
2022/07/12 00:18:49;;;;;;;9.47;3.50;;;11.90;82.20;;;;;;5072690;28;20178;-80
2022/07/12 00:21:16;;;;;;;6.83;3.60;;;12.00;82.40;;;;;;5080488;28;20797;-80
2022/07/12 00:23:44;;;;;;;5.10;3.80;;;12.30;82.60;;;;;;5068873;28;20216;-76
2022/07/12 00:26:11;;;;;;;8.40;3.90;;;12.30;81.30;;;;;;5059762;28;20587;-79
2022/07/12 00:28:39;;;;;;;7.97;3.93;;;12.40;81.30;;;;;;5071060;28;20582;-82
2022/07/12 00:31:06;;;;;;;6.47;4.30;;;12.60;81.50;;;;;;5065159;28;20658;-78
2022/07/12 00:33:33;;;;;;;6.30;3.80;;;12.80;80.60;;;;;;5080803;28;20202;-80
2022/07/12 00:36:01;;;;;;;11.63;3.90;;;12.90;79.60;;;;;;5071644;28;20195;-82
2022/07/12 00:38:28;;;;;;;5.70;3.90;;;12.80;79.70;;;;;;5070771;28;20184;-80
2022/07/12 00:40:56;;;;;;;8.33;4.67;;;12.90;79.50;;;;;;5061975;28;20206;-84
2022/07/12 00:43:23;;;;;;;6.63;4.17;;;13.00;79.20;;;;;;5053570;28;20176;-77
2022/07/12 00:45:51;;;;;;;9.67;4.53;;;12.80;78.00;;;;;;5068336;28;20671;-80
2022/07/12 00:48:19;;;;;;;7.70;4.77;;;12.90;79.00;;;;;;5074793;28;20658;-75
2022/07/12 00:50:48;;;;;;;6.17;4.43;;;12.80;78.40;;;;;;5065042;28;20207;-84
2022/07/12 00:53:18;;;;;;;10.20;4.80;;;12.90;78.80;;;;;;5053907;28;20192;-85
2022/07/12 00:55:46;;;;;;;9.50;4.67;;;12.90;79.00;;;;;;5069923;28;20210;-85
2022/07/12 00:58:13;;;;;;;9.17;4.90;;;13.00;79.50;;;;;;5072989;28;20202;-81
2022/07/12 01:00:41;;;;;;;8.17;4.83;;;13.20;79.10;;;;;;5081946;28;20657;-87
2022/07/12 01:03:08;;;;;;;11.80;5.27;;;13.30;78.90;;;;;;5068213;28;20182;-82
2022/07/12 01:05:35;;;;;;;8.83;5.17;;;13.40;78.50;;;;;;5069840;28;20178;-84
2022/07/12 01:08:03;;;;;;;7.40;5.73;;;13.50;78.00;;;;;;5071385;28;20179;-77
2022/07/12 01:10:32;;;;;;;11.63;5.80;;;13.50;77.10;;;;;;5075385;28;20246;-87
2022/07/12 01:13:00;;;;;;;9.23;5.03;;;13.60;77.70;;;;;;5061463;28;20186;-85
2022/07/12 01:15:29;;;;;;;9.80;5.67;;;13.80;77.50;;;;;;5054595;28;20200;-83
2022/07/12 01:17:58;;;;;;;7.77;4.77;;;14.00;76.30;;;;;;5065522;28;20251;-78
2022/07/12 01:20:27;;;;;;;8.80;5.43;;;14.20;75.30;;;;;;5075622;28;20609;-82
2022/07/12 01:22:57;;;;;;;9.30;5.97;;;14.30;75.40;;;;;;5062716;28;20266;-85
2022/07/12 01:25:26;;;;;;;9.63;5.40;;;14.30;74.50;;;;;;5060951;28;20188;-83
2022/07/12 01:27:53;;;;;;;6.70;5.57;;;14.40;72.90;;;;;;5076577;28;20671;-80
2022/07/12 01:30:21;;;;;;;14.50;6.83;;;14.30;73.10;;;;;;5057732;28;20771;-82
2022/07/12 01:32:49;;;;;;;9.90;5.67;;;14.40;74.40;;;;;;5061660;28;20179;-85
2022/07/12 01:35:17;;;;;;;8.57;5.90;;;14.50;73.60;;;;;;5065386;28;20188;-81
2022/07/12 01:37:45;;;;;;;9.63;5.37;;;14.70;74.00;;;;;;5054433;28;20184;-86
2022/07/12 01:40:15;;;;;;;8.60;5.07;;;14.80;72.70;;;;;;5061653;28;20190;-83
2022/07/12 01:42:46;;;;;;;11.47;7.13;;;14.90;71.90;;;;;;5052841;28;20267;-83
2022/07/12 01:45:13;;;;;;;11.47;6.43;;;15.00;72.30;;;;;;5053630;28;20176;-81
2022/07/12 01:47:41;;;;;;;13.40;6.30;;;15.10;72.30;;;;;;5071318;28;20547;-82
2022/07/12 01:50:11;;;;;;;13.40;6.03;;;14.90;71.90;;;;;;5058637;28;20251;-87
2022/07/12 01:52:41;;;;;;;12.07;5.20;;;15.20;72.90;;;;;;5066901;28;20255;-76
2022/07/12 01:55:10;;;;;;;9.17;5.07;;;15.00;71.80;;;;;;5065105;28;20201;-85
2022/07/12 01:57:41;;;;;;;9.80;5.93;;;15.20;71.60;;;;;;5067214;28;20662;-84
2022/07/12 02:00:09;;;;;;;9.30;5.47;;;15.30;71.70;;;;;;5054792;28;20204;-81
2022/07/12 02:02:38;;;;;;;12.23;6.30;;;15.50;69.90;;;;;;5052249;28;20181;-79
2022/07/12 02:05:05;;;;;;;10.43;5.67;;;15.70;69.50;;;;;;5052677;28;20222;-83
2022/07/12 02:07:33;;;;;;;7.83;5.10;;;16.00;68.40;;;;;;5052502;28;20280;-83
2022/07/12 02:10:01;;;;;;;10.40;5.57;;;16.10;67.40;;;;;;5052379;28;20200;-83
2022/07/12 02:12:29;;;;;;;10.47;4.57;;;16.20;68.10;;;;;;5052879;28;20187;-81
2022/07/12 02:14:56;;;;;;;12.70;5.73;;;16.30;66.60;;;;;;5067328;28;20267;-87
2022/07/12 02:17:24;;;;;;;7.53;4.97;;;16.30;66.30;;;;;;5057527;28;20267;-82
2022/07/12 02:19:52;;;;;;;6.67;4.80;;;16.30;65.60;;;;;;5053806;28;20183;-81
2022/07/12 02:22:20;;;;;;;8.03;4.63;;;16.40;64.30;;;;;;5053708;28;20170;-83
2022/07/12 02:24:47;;;;;;;7.67;4.70;;;16.30;64.20;;;;;;5058179;28;20648;-77
2022/07/12 02:27:15;;;;;;;6.63;4.27;;;16.10;64.60;;;;;;5058198;28;20265;-86
2022/07/12 02:29:42;;;;;;;10.03;4.53;;;16.20;65.70;;;;;;5051731;28;20214;-78
2022/07/12 02:32:10;;;;;;;10.90;5.00;;;16.50;63.60;;;;;;5056875;28;20224;-82
2022/07/12 02:34:37;;;;;;;8.07;4.10;;;16.60;63.20;;;;;;5051239;28;20647;-80
2022/07/12 02:37:05;;;;;;;7.67;4.47;;;16.70;63.00;;;;;;5052974;28;20251;-87
2022/07/12 02:39:32;;;;;;;6.17;3.53;;;16.90;61.50;;;;;;5053343;28;20178;-81
2022/07/12 02:41:59;;;;;;;7.00;3.10;;;16.80;60.90;;;;;;5056663;28;20396;-85
2022/07/12 02:44:27;;;;;;;7.30;2.73;;;16.80;60.40;;;;;;5055920;28;20653;-83
2022/07/12 02:46:54;;;;;;;7.80;3.20;;;16.80;59.60;;;;;;5056355;28;20172;-84
2022/07/12 02:49:22;;;;;;;6.77;3.40;;;16.50;61.10;;;;;;5056030;28;20208;-86
2022/07/12 02:51:49;;;;;;;5.27;1.93;;;16.70;61.80;;;;;;5056234;28;20210;-89
2022/07/12 02:54:16;;;;;;;5.27;2.43;;;17.00;58.30;;;;;;5057705;28;20169;-88
2022/07/12 02:56:44;;;;;;;2.77;1.93;;;17.20;58.30;;;;;;5060631;28;20692;-87
2022/07/12 02:59:11;;;;;;;3.93;2.40;;;17.50;55.50;;;;;;5054981;28;20188;-87
2022/07/12 03:01:39;;;;;;;8.10;2.30;;;17.40;56.00;;;;;;5056282;28;20180;-81
2022/07/12 03:04:06;;;;;;;3.57;2.00;;;17.60;54.90;;;;;;5055579;28;20259;-81
2022/07/12 03:06:34;;;;;;;8.47;2.37;;;17.70;55.20;;;;;;5056407;28;20180;-81
2022/07/12 03:09:01;;;;;;;6.47;2.47;;;17.70;56.10;;;;;;5055530;28;20696;-84
2022/07/12 03:11:29;;;;;;;3.50;2.40;;;17.30;54.90;;;;;;5055706;28;20195;-79
2022/07/12 03:13:56;;;;;;;6.17;2.60;;;17.10;55.70;;;;;;5055736;28;20176;-80
2022/07/12 03:16:24;;;;;;;4.30;2.47;;;17.20;57.00;;;;;;5055338;28;20270;-78
2022/07/12 03:18:51;;;;;;;5.93;2.53;;;17.50;57.00;;;;;;5061965;28;20198;-84
2022/07/12 03:21:18;;;;;;;7.70;2.60;;;17.90;56.70;;;;;;5075304;28;20268;-80
2022/07/12 03:23:46;;;;;;;5.23;2.20;;;18.00;54.40;;;;;;5062585;28;20184;-81
2022/07/12 03:26:13;;;;;;;8.93;2.77;;;18.10;53.30;;;;;;5067954;28;20180;-84
2022/07/12 03:28:41;;;;;;;6.43;2.80;;;17.80;54.30;;;;;;5055072;28;20650;-79
2022/07/12 03:31:08;;;;;;;8.17;2.80;;;17.60;54.30;;;;;;5054718;28;20211;-82
2022/07/12 03:33:36;;;;;;;7.47;2.67;;;17.30;55.40;;;;;;5053830;28;20980;-78
2022/07/12 03:36:06;;;;;;;6.37;2.80;;;17.20;57.20;;;;;;5054883;28;20186;-78
2022/07/12 03:38:34;;;;;;;8.23;3.27;;;17.00;58.80;;;;;;5054491;28;20164;-78
2022/07/12 03:41:01;;;;;;;9.57;3.30;;;16.90;58.70;;;;;;5053422;28;20183;-78
2022/07/12 03:43:29;;;;;;;7.57;3.27;;;17.10;57.50;;;;;;5053707;28;20191;-77
2022/07/12 03:45:56;;;;;;;6.07;3.17;;;17.00;57.10;;;;;;5054872;28;20174;-87
2022/07/12 03:48:23;;;;;;;9.00;3.33;;;17.10;57.10;;;;;;5054112;28;20183;-78
2022/07/12 03:50:51;;;;;;;5.60;3.17;;;17.30;57.10;;;;;;5054084;28;20246;-80
2022/07/12 03:53:18;;;;;;;4.70;3.13;;;17.50;56.70;;;;;;5055068;28;20171;-80
2022/07/12 03:55:46;;;;;;;5.27;2.17;;;17.70;55.70;;;;;;5057988;28;20536;-76
2022/07/12 03:58:13;;;;;;;3.20;2.03;;;17.70;53.10;;;;;;5054846;28;20176;-80
2022/07/12 04:00:42;;;;;;;4.23;2.27;;;18.00;53.30;;;;;;5054117;28;20187;-78
2022/07/12 04:03:10;;;;;;;3.57;2.40;;;18.60;52.00;;;;;;5054747;28;20172;-77
2022/07/12 04:05:38;;;;;;;10.13;2.90;;;18.90;52.20;;;;;;5054512;28;20167;-76
2022/07/12 04:08:06;;;;;;;4.83;2.63;;;19.10;50.40;;;;;;5054026;28;20241;-79
2022/07/12 04:10:33;;;;;;;4.13;2.20;;;19.40;49.70;;;;;;5054149;28;20203;-81
2022/07/12 04:13:01;;;;;;;5.73;1.77;;;18.80;48.00;;;;;;5055240;28;20172;-80
2022/07/12 04:15:28;;;;;;;4.27;1.67;;;18.60;45.90;;;;;;5055639;28;20179;-81
2022/07/12 04:17:56;;;;;;;3.90;1.37;;;18.60;47.10;;;;;;5055901;28;20234;-84
2022/07/12 04:20:23;;;;;;;4.17;1.57;;;18.50;47.80;;;;;;5055387;28;20168;-80
2022/07/12 04:22:51;;;;;;;4.10;1.50;;;18.30;45.50;;;;;;5056175;28;20180;-78
2022/07/12 04:25:18;;;;;;;2.87;1.50;;;18.00;46.50;;;;;;5059424;28;20210;-80
2022/07/12 04:27:45;;;;;;;3.07;1.60;;;18.30;47.00;;;;;;5054921;28;20616;-78
2022/07/12 04:30:14;;;;;;;2.57;1.57;;;19.20;43.90;;;;;;5054783;28;20307;-76
2022/07/12 04:32:41;;;;;;;3.17;1.40;;;19.80;42.40;;;;;;5058371;28;20211;-81
2022/07/12 04:35:09;;;;;;;2.50;1.57;;;20.60;41.50;;;;;;5054301;28;20182;-80
2022/07/12 04:37:36;;;;;;;3.63;1.80;;;20.50;41.00;;;;;;5065006;28;20228;-77
2022/07/12 04:40:05;;;;;;;3.10;2.00;;;19.70;43.10;;;;;;5073020;28;20178;-81
2022/07/12 04:42:33;;;;;;;1.80;1.17;;;19.20;44.90;;;;;;5054287;28;20187;-83
2022/07/12 04:45:00;;;;;;;2.73;1.40;;;18.80;45.10;;;;;;5054125;28;20180;-79
2022/07/12 04:47:29;;;;;;;3.77;1.50;;;18.50;45.70;;;;;;5055798;28;20186;-77
2022/07/12 04:49:57;;;;;;;2.00;1.40;;;18.40;44.90;;;;;;5055912;28;20192;-86
2022/07/12 04:52:24;;;;;;;3.07;1.13;;;18.60;42.90;;;;;;5057116;28;20634;-75
2022/07/12 04:54:51;;;;;;;5.33;1.40;;;18.60;44.00;;;;;;5055608;28;20176;-82
2022/07/12 04:57:19;;;;;;;2.63;1.50;;;18.70;42.70;;;;;;5055612;28;20168;-76
2022/07/12 04:59:46;;;;;;;2.63;1.23;;;19.00;43.20;;;;;;5053235;28;20524;-78
2022/07/12 05:02:13;;;;;;;2.23;1.20;;;19.60;41.90;;;;;;5085507;28;20194;-76
2022/07/12 05:04:41;;;;;;;3.20;1.47;;;20.20;41.20;;;;;;5053478;28;20287;-76
2022/07/12 05:07:08;;;;;;;3.53;1.57;;;20.70;39.70;;;;;;5052232;28;20599;-75
2022/07/12 05:09:36;;;;;;;2.43;1.47;;;20.70;39.40;;;;;;5053542;28;20253;-76
2022/07/12 05:12:03;;;;;;;4.70;1.10;;;21.20;38.70;;;;;;5060777;28;20258;-76
2022/07/12 05:14:31;;;;;;;5.33;1.60;;;21.50;38.00;;;;;;5066943;28;20244;-78
2022/07/12 05:16:58;;;;;;;1.80;1.23;;;21.80;37.50;;;;;;5053794;28;20229;-76
2022/07/12 05:19:26;;;;;;;2.93;1.47;;;21.50;38.00;;;;;;5054703;28;20180;-76
2022/07/12 05:21:54;;;;;;;1.27;1.17;;;21.50;38.30;;;;;;5066545;28;20275;-78
2022/07/12 05:24:22;;;;;;;2.60;1.33;;;21.50;38.10;;;;;;5072167;28;20210;-78
2022/07/12 05:26:49;;;;;;;2.90;1.30;;;21.60;37.90;;;;;;5058720;28;20215;-75
2022/07/12 05:29:17;;;;;;;4.13;2.10;;;20.90;37.90;;;;;;5062649;28;20179;-80
2022/07/12 05:31:44;;;;;;;3.13;1.60;;;20.60;39.30;;;;;;5054275;28;20245;-78
2022/07/12 05:34:12;;;;;;;3.03;1.60;;;20.40;40.30;;;;;;5051978;28;20176;-75
2022/07/12 05:36:39;;;;;;;4.10;1.50;;;20.80;40.40;;;;;;5052158;28;20187;-76
2022/07/12 05:39:07;;;;;;;4.20;1.80;;;21.10;40.10;;;;;;5065496;28;20631;-77
2022/07/12 05:41:34;;;;;;;9.57;6.77;;;20.80;39.50;;;;;;5052567;28;20291;-79
2022/07/12 05:44:02;;;;;;;20.27;18.07;;;20.70;39.60;;;;;;5052509;28;20187;-77
2022/07/12 05:46:29;;;;;;;4.03;2.57;;;21.00;38.70;;;;;;5050960;28;20184;-76
2022/07/12 05:48:56;;;;;;;2.80;1.50;;;21.50;38.40;;;;;;5052040;28;20700;-77
2022/07/12 05:54:10;;;;;;;2.20;1.30;;;21.20;38.60;;;;;;5061634;28;20238;-76
2022/07/12 05:56:38;;;;;;;2.13;1.60;;;20.80;40.40;;;;;;5065407;28;20192;-77
2022/07/12 05:59:05;;;;;;;2.23;1.30;;;20.40;41.40;;;;;;5054750;28;20193;-78
2022/07/12 06:01:33;;;;;;;2.43;1.13;;;20.30;41.30;;;;;;5052371;28;20175;-76
2022/07/12 06:04:01;;;;;;;3.80;1.30;;;19.80;40.70;;;;;;5059935;28;20711;-80
2022/07/12 06:06:28;;;;;;;3.07;1.40;;;19.40;40.20;;;;;;5070260;28;20194;-77
2022/07/12 06:08:56;;;;;;;1.80;1.30;;;19.30;41.30;;;;;;5057603;28;20176;-79
2022/07/12 06:11:23;;;;;;;4.43;1.67;;;19.50;41.20;;;;;;5055129;28;20694;-78
2022/07/12 06:13:54;;;;;;;1.87;1.10;;;19.20;42.60;;;;;;5055244;28;20641;-77
2022/07/12 06:16:21;;;;;;;4.27;1.30;;;18.80;42.10;;;;;;5058173;28;20546;-88
2022/07/12 06:18:48;;;;;;;1.97;1.40;;;18.30;42.90;;;;;;5077418;28;20175;-86
2022/07/12 06:21:16;;;;;;;2.33;1.10;;;18.00;45.00;;;;;;5066297;28;20182;-87
2022/07/12 06:23:43;;;;;;;6.57;1.40;;;17.60;44.20;;;;;;5056881;28;20172;-85
2022/07/12 06:26:11;;;;;;;1.80;1.10;;;17.30;46.20;;;;;;5063784;28;20176;-78
2022/07/12 06:28:38;;;;;;;3.67;1.20;;;17.10;45.10;;;;;;5058700;28;20699;-79
2022/07/12 06:31:06;;;;;;;2.80;1.47;;;16.80;45.40;;;;;;5055963;28;20231;-79
2022/07/12 06:33:34;;;;;;;2.27;1.10;;;16.70;45.50;;;;;;5058164;28;20709;-82
2022/07/12 06:36:01;;;;;;;5.37;1.60;;;16.50;47.50;;;;;;5066731;28;20554;-84
2022/07/12 06:38:29;;;;;;;2.53;1.30;;;16.30;49.00;;;;;;5066768;28;20185;-86
2022/07/12 06:40:56;;;;;;;5.47;1.27;;;16.10;49.50;;;;;;5060473;28;20194;-87
2022/07/12 06:43:24;;;;;;;1.73;1.20;;;15.90;50.60;;;;;;5066676;28;20187;-84
2022/07/12 06:45:51;;;;;;;3.60;1.23;;;15.80;51.00;;;;;;5059650;28;20653;-84
2022/07/12 06:48:19;;;;;;;4.30;1.87;;;15.60;52.70;;;;;;5062843;28;20183;-83
2022/07/12 06:50:46;;;;;;;2.87;1.73;;;15.40;54.80;;;;;;5059043;28;20256;-88
2022/07/12 06:53:14;;;;;;;3.40;1.70;;;15.30;56.00;;;;;;5063565;28;20178;-82
2022/07/12 06:55:44;;;;;;;3.47;1.47;;;15.20;56.30;;;;;;5067658;28;20195;-89
2022/07/12 06:58:11;;;;;;;2.30;1.30;;;15.10;57.80;;;;;;5057175;28;20179;-84
2022/07/12 07:00:39;;;;;;;4.37;1.50;;;15.00;58.80;;;;;;5064279;28;20249;-83
2022/07/12 07:03:10;;;;;;;2.83;1.40;;;14.80;58.00;;;;;;5067689;28;20221;-85
2022/07/12 07:05:38;;;;;;;2.77;1.57;;;14.80;58.80;;;;;;5055675;28;20646;-84
2022/07/12 07:08:05;;;;;;;7.93;1.80;;;14.60;59.00;;;;;;5058266;28;20174;-88
2022/07/12 07:10:33;;;;;;;5.20;1.90;;;14.50;59.70;;;;;;5054803;28;20207;-77
2022/07/12 07:13:00;;;;;;;6.53;1.90;;;14.50;61.40;;;;;;5059019;28;20179;-78
2022/07/12 07:15:28;;;;;;;5.70;2.10;;;14.30;62.00;;;;;;5062321;28;20215;-76
2022/07/12 07:17:56;;;;;;;7.67;1.83;;;14.30;63.00;;;;;;5066493;28;20168;-77
2022/07/12 07:20:24;;;;;;;2.17;1.67;;;14.10;62.70;;;;;;5056792;28;20213;-79
2022/07/12 07:22:52;;;;;;;6.60;2.60;;;14.10;62.70;;;;;;5053685;28;20176;-77
2022/07/12 07:25:19;;;;;;;5.03;2.13;;;14.00;62.90;;;;;;5061847;28;20263;-76
2022/07/12 07:27:47;;;;;;;4.10;2.30;;;13.90;63.30;;;;;;5055660;28;20222;-81
2022/07/12 07:32:59;;;;;;;5.17;2.33;;;13.80;64.30;;;;;;5062108;28;20189;-79
2022/07/12 07:35:27;;;;;;;5.27;2.70;;;13.80;63.90;;;;;;5060641;28;20190;-77
2022/07/12 07:37:54;;;;;;;7.37;3.23;;;13.70;64.30;;;;;;5064379;28;20728;-78
2022/07/12 07:40:22;;;;;;;7.17;3.17;;;13.70;65.40;;;;;;5054186;28;20242;-81
2022/07/12 07:42:49;;;;;;;6.70;3.40;;;13.70;65.80;;;;;;5062158;28;20270;-82
2022/07/12 07:45:17;;;;;;;7.17;3.50;;;13.60;66.10;;;;;;5071051;28;20245;-78
2022/07/12 07:47:49;;;;;;;8.67;3.87;;;13.50;66.00;;;;;;5071182;28;20183;-82
2022/07/12 07:50:16;;;;;;;3.93;2.70;;;13.50;66.50;;;;;;5069998;28;20616;-77
2022/07/12 07:52:45;;;;;;;5.83;3.50;;;13.50;66.30;;;;;;5053363;28;20168;-83
2022/07/12 07:55:12;;;;;;;4.83;2.83;;;13.40;67.30;;;;;;5061746;28;20605;-81
2022/07/12 07:57:40;;;;;;;6.00;3.00;;;13.30;67.30;;;;;;5071841;28;20172;-82
2022/07/12 08:00:08;;;;;;;5.20;2.57;;;13.30;67.60;;;;;;5054119;28;20179;-81
2022/07/12 08:02:36;;;;;;;5.50;2.90;;;13.30;67.90;;;;;;5054037;28;20759;-80
2022/07/12 08:05:04;;;;;;;6.00;2.57;;;13.20;68.20;;;;;;5054461;28;20179;-81
2022/07/12 08:07:31;;;;;;;5.40;3.00;;;13.20;68.50;;;;;;5054478;28;20180;-78
2022/07/12 08:09:59;;;;;;;7.03;4.13;;;13.10;68.70;;;;;;5053723;28;20200;-80
2022/07/12 08:12:26;;;;;;;5.93;4.73;;;13.20;68.60;;;;;;5054733;28;20177;-80
2022/07/12 08:14:53;;;;;;;10.30;6.27;;;13.20;68.50;;;;;;5058887;28;20207;-82
2022/07/12 08:17:21;;;;;;;10.83;6.00;;;13.10;68.10;;;;;;5059262;28;20762;-81
2022/07/12 08:19:48;;;;;;;12.10;6.53;;;13.10;68.30;;;;;;5058798;28;20180;-82
2022/07/12 08:22:16;;;;;;;11.10;6.40;;;13.10;68.30;;;;;;5052667;28;20194;-82
2022/07/12 08:24:43;;;;;;;12.13;6.40;;;13.10;68.60;;;;;;5057977;28;20519;-82
2022/07/12 08:27:10;;;;;;;8.53;5.30;;;13.00;69.00;;;;;;5055327;28;20224;-81
2022/07/12 08:29:38;;;;;;;11.10;5.50;;;13.00;69.90;;;;;;5061093;28;20211;-81
2022/07/12 08:32:07;;;;;;;7.77;5.43;;;13.00;71.10;;;;;;5060629;28;20175;-81
2022/07/12 08:34:35;;;;;;;11.30;5.63;;;13.00;72.00;;;;;;5063846;28;20207;-81
2022/07/12 08:37:03;;;;;;;15.10;8.43;;;13.00;72.60;;;;;;5053300;28;20269;-81
2022/07/12 08:39:30;;;;;;;21.97;9.97;;;12.90;73.10;;;;;;5053759;28;20230;-79
2022/07/12 08:41:58;;;;;;;18.53;8.83;;;13.00;73.50;;;;;;5058402;28;20183;-81
2022/07/12 08:44:25;;;;;;;12.20;6.50;;;13.00;72.60;;;;;;5059581;28;20180;-82
2022/07/12 08:46:53;;;;;;;17.50;7.37;;;13.00;72.00;;;;;;5053407;28;20206;-79
2022/07/12 08:49:20;;;;;;;18.17;7.73;;;13.10;72.10;;;;;;5052755;28;20578;-81
2022/07/12 08:51:48;;;;;;;13.83;6.77;;;13.00;72.70;;;;;;5053701;28;20208;-80
2022/07/12 08:54:16;;;;;;;12.57;6.83;;;13.00;72.70;;;;;;5054764;28;20179;-77
2022/07/12 08:56:45;;;;;;;19.53;9.97;;;13.00;74.20;;;;;;5064674;28;20184;-80
2022/07/12 08:59:22;;;;;;;18.63;10.53;;;12.90;75.40;;;;;;5057722;28;20176;-78
2022/07/12 09:01:54;;;;;;;13.97;8.37;;;12.80;76.30;;;;;;5057344;28;20228;-77
2022/07/12 09:04:27;;;;;;;12.13;7.00;;;12.80;76.40;;;;;;5058115;28;20270;-78
2022/07/12 09:06:54;;;;;;;14.93;6.70;;;12.80;76.30;;;;;;5052971;28;20180;-78
2022/07/12 09:09:29;;;;;;;11.70;6.23;;;12.80;76.50;;;;;;5063927;28;20198;-76
2022/07/12 09:11:57;;;;;;;11.20;6.47;;;12.70;76.50;;;;;;5053215;28;20638;-76
2022/07/12 09:14:26;;;;;;;14.27;7.23;;;12.70;76.30;;;;;;5059711;28;20180;-80
2022/07/12 09:17:12;;;;;;;15.07;8.10;;;12.50;75.80;;;;;;5071436;28;20175;-77
2022/07/12 09:19:54;;;;;;;15.13;9.00;;;12.50;76.10;;;;;;5082231;28;20188;-82
2022/07/12 09:22:21;;;;;;;15.43;8.93;;;12.40;76.00;;;;;;5063017;28;20183;-78
2022/07/12 09:24:49;;;;;;;14.17;8.87;;;12.50;76.20;;;;;;5066518;28;20179;-76
2022/07/12 09:27:16;;;;;;;13.60;9.87;;;12.40;76.80;;;;;;5085416;28;20226;-78
2022/07/12 09:29:50;;;;;;;30.10;22.03;;;12.40;77.60;;;;;;5079956;28;20630;-80
2022/07/12 09:37:50;;;;;;;12.87;6.93;;;12.20;77.40;;;;;;5063466;28;20233;-77
2022/07/12 09:40:18;;;;;;;13.13;7.33;;;12.20;77.40;;;;;;5056728;28;20206;-80
2022/07/12 09:42:45;;;;;;;11.20;6.87;;;12.20;77.50;;;;;;5058079;28;20179;-76
2022/07/12 09:45:13;;;;;;;13.00;7.63;;;12.20;77.70;;;;;;5073570;28;20178;-78
2022/07/12 09:47:43;;;;;;;13.40;7.60;;;12.20;78.10;;;;;;5066243;28;20191;-77
2022/07/12 09:50:11;;;;;;;13.10;7.63;;;12.20;78.30;;;;;;5051589;28;20192;-79
2022/07/12 09:52:41;;;;;;;9.60;6.70;;;12.20;78.90;;;;;;5066040;28;20184;-77
2022/07/12 09:55:11;;;;;;;13.77;6.73;;;12.20;79.20;;;;;;5074461;28;20206;-81
2022/07/12 09:57:44;;;;;;;8.50;6.00;;;12.20;79.30;;;;;;5073174;28;20218;-76
2022/07/12 10:00:12;;;;;;;9.57;7.27;;;12.20;79.50;;;;;;5072052;28;20217;-77
2022/07/12 10:02:41;;;;;;;12.97;8.77;;;12.30;79.40;;;;;;5074082;28;20544;-78
2022/07/12 10:05:11;;;;;;;11.70;7.43;;;12.20;79.80;;;;;;5065887;28;20543;-77
2022/07/12 10:07:39;;;;;;;11.57;7.07;;;12.20;80.30;;;;;;5072281;28;20553;-78
2022/07/12 10:10:08;;;;;;;12.97;6.20;;;12.20;80.10;;;;;;5080067;28;20682;-77
2022/07/12 10:12:36;;;;;;;7.80;5.10;;;12.20;80.10;;;;;;5061753;28;20216;-80
2022/07/12 10:15:09;;;;;;;8.97;5.60;;;12.20;80.10;;;;;;5059506;28;20190;-76
2022/07/12 10:17:37;;;;;;;8.67;4.93;;;12.30;80.20;;;;;;5090936;28;20711;-78
2022/07/12 10:20:22;;;;;;;11.13;4.93;;;12.20;80.10;;;;;;5060821;28;20179;-80
2022/07/12 10:22:53;;;;;;;8.90;5.13;;;12.30;80.40;;;;;;5074107;28;20187;-79
2022/07/12 10:25:34;;;;;;;9.77;5.27;;;12.30;80.40;;;;;;5066116;28;20262;-80
2022/07/12 10:28:04;;;;;;;9.87;5.03;;;12.30;80.40;;;;;;5057432;28;20217;-77
2022/07/12 10:30:42;;;;;;;9.83;5.50;;;12.30;80.20;;;;;;5061766;28;20254;-77
2022/07/12 10:33:16;;;;;;;8.17;5.60;;;12.30;80.00;;;;;;5070657;28;20558;-78
2022/07/12 10:36:03;;;;;;;8.67;5.23;;;12.30;80.20;;;;;;5065120;28;20199;-79
2022/07/12 10:38:31;;;;;;;12.83;7.23;;;12.20;80.90;;;;;;5070110;28;20179;-77
2022/07/12 10:41:15;;;;;;;11.57;7.67;;;12.30;81.60;;;;;;5051965;28;20606;-79
2022/07/12 10:47:00;;;;;;;11.33;8.87;;;12.10;82.40;;;;;;5062906;28;20187;-77
2022/07/12 10:49:32;;;;;;;14.50;8.93;;;12.10;82.50;;;;;;5065742;28;20215;-77
2022/07/12 10:52:23;;;;;;;13.50;8.90;;;12.10;82.40;;;;;;5054623;28;20538;-76
2022/07/12 10:54:57;;;;;;;17.37;8.00;;;12.10;82.40;;;;;;5058919;28;20534;-77
2022/07/12 10:57:50;;;;;;;15.47;7.93;;;12.20;82.70;;;;;;5074771;28;20194;-80
2022/07/12 11:00:19;;;;;;;10.60;7.37;;;12.00;82.50;;;;;;5060208;28;20182;-82
2022/07/12 11:02:47;;;;;;;17.30;8.33;;;12.00;82.70;;;;;;5086571;28;20179;-80
2022/07/12 11:05:14;;;;;;;11.67;7.70;;;11.90;83.00;;;;;;5068860;28;20187;-79
2022/07/12 11:07:42;;;;;;;16.50;8.00;;;11.90;82.70;;;;;;5075914;28;20194;-79
2022/07/12 11:10:13;;;;;;;11.70;6.97;;;12.00;82.50;;;;;;5069454;28;20248;-79
2022/07/12 11:12:40;;;;;;;11.20;6.97;;;12.00;82.40;;;;;;5065886;28;20184;-79
2022/07/12 11:15:08;;;;;;;13.07;7.43;;;12.00;81.90;;;;;;5064662;28;20203;-80
2022/07/12 11:17:36;;;;;;;12.33;7.63;;;11.90;82.00;;;;;;5071174;28;20194;-77
2022/07/12 11:20:13;;;;;;;12.73;7.23;;;11.90;81.90;;;;;;5080573;28;20190;-80
2022/07/12 11:22:42;;;;;;;12.03;7.83;;;11.90;81.80;;;;;;5069780;28;20240;-76
2022/07/12 11:25:12;;;;;;;12.43;7.80;;;11.90;81.40;;;;;;5064611;28;20540;-80
2022/07/12 11:27:40;;;;;;;12.90;7.27;;;12.00;81.60;;;;;;5064564;28;20588;-81
2022/07/12 11:30:08;;;;;;;16.23;7.20;;;11.90;81.40;;;;;;5054952;28;20199;-80
2022/07/12 11:32:38;;;;;;;13.90;7.43;;;11.90;81.60;;;;;;5064231;28;20188;-77
2022/07/12 11:35:22;;;;;;;15.43;8.20;;;11.90;81.60;;;;;;5067973;28;20266;-80
2022/07/12 11:37:54;;;;;;;11.93;7.70;;;11.90;81.90;;;;;;5072879;28;20259;-80
2022/07/12 11:40:30;;;;;;;16.63;7.57;;;11.90;82.10;;;;;;5067463;28;20184;-79
2022/07/12 11:43:00;;;;;;;12.93;7.50;;;11.90;82.00;;;;;;5058868;28;20184;-81
2022/07/12 11:45:32;;;;;;;14.43;8.17;;;11.80;82.10;;;;;;5057503;28;20179;-80
2022/07/12 11:48:01;;;;;;;13.10;8.13;;;11.80;82.40;;;;;;5061197;28;20175;-81
2022/07/12 11:50:30;;;;;;;18.57;8.53;;;11.80;82.30;;;;;;5066236;28;20216;-81
2022/07/12 11:52:58;;;;;;;17.90;7.90;;;11.70;81.80;;;;;;5054610;28;20255;-76
2022/07/12 11:55:25;;;;;;;13.13;7.67;;;11.70;81.70;;;;;;5059397;28;20184;-77
2022/07/12 11:58:05;;;;;;;18.00;8.20;;;11.70;81.80;;;;;;5062023;28;20175;-77
2022/07/12 12:00:32;;;;;;;11.23;8.00;;;11.70;81.40;;;;;;5056411;28;20183;-77
2022/07/12 12:03:00;;;;;;;11.93;7.53;;;11.70;81.40;;;;;;5061216;28;20655;-76
2022/07/12 12:05:27;;;;;;;11.83;7.60;;;11.70;81.40;;;;;;5054214;28;20641;-76
2022/07/12 12:07:55;;;;;;;10.50;7.10;;;11.60;81.10;;;;;;5054213;28;20238;-76
2022/07/12 12:10:22;;;;;;;16.80;7.33;;;11.60;81.00;;;;;;5064972;28;20249;-78
2022/07/12 12:12:57;;;;;;;13.60;6.90;;;11.60;80.90;;;;;;5055690;28;20266;-77
2022/07/12 12:15:26;;;;;;;13.53;6.77;;;11.50;80.90;;;;;;5054229;28;20650;-77
2022/07/12 12:17:58;;;;;;;11.37;6.40;;;11.60;81.10;;;;;;5065833;28;20504;-78
2022/07/12 12:20:31;;;;;;;10.97;6.50;;;11.50;80.50;;;;;;5055200;28;20176;-76
2022/07/12 12:23:00;;;;;;;10.67;5.83;;;11.50;80.60;;;;;;5054088;28;20190;-78
2022/07/12 12:25:29;;;;;;;9.50;5.30;;;11.50;80.10;;;;;;5063209;28;20201;-77
2022/07/12 12:28:02;;;;;;;12.40;5.87;;;11.40;80.20;;;;;;5054023;28;20223;-78
2022/07/12 12:30:31;;;;;;;9.63;6.00;;;11.50;80.40;;;;;;5053745;28;20192;-77
2022/07/12 12:33:01;;;;;;;10.00;6.03;;;11.50;80.40;;;;;;5055057;28;20180;-76
2022/07/12 12:35:33;;;;;;;8.27;5.80;;;11.30;80.30;;;;;;5062260;28;20723;-78
2022/07/12 12:38:03;;;;;;;14.20;6.73;;;11.40;80.60;;;;;;5053368;28;20188;-77
2022/07/12 12:40:34;;;;;;;11.27;6.30;;;11.40;80.60;;;;;;5062974;28;20796;-78
2022/07/12 12:43:13;;;;;;;13.23;6.70;;;11.40;80.80;;;;;;5054097;28;20267;-76
2022/07/12 12:45:56;;;;;;;11.33;7.07;;;11.30;80.70;;;;;;5069922;28;20185;-77
2022/07/12 12:48:29;;;;;;;8.30;6.23;;;11.20;81.00;;;;;;5065183;28;20641;-76
2022/07/12 12:51:17;;;;;;;10.23;5.93;;;11.20;81.30;;;;;;5053737;28;20693;-75
2022/07/12 12:53:54;;;;;;;8.33;5.63;;;11.30;81.50;;;;;;5053592;28;20179;-77
2022/07/12 12:56:22;;;;;;;8.83;5.90;;;11.30;81.80;;;;;;5057214;28;20187;-76
2022/07/12 12:58:51;;;;;;;8.90;5.50;;;11.20;81.60;;;;;;5053429;28;20280;-75
2022/07/12 13:01:18;;;;;;;12.00;5.83;;;11.20;81.70;;;;;;5062786;28;20228;-76
2022/07/12 13:03:46;;;;;;;10.57;5.93;;;11.20;82.10;;;;;;5072666;28;20200;-77
2022/07/12 13:06:13;;;;;;;8.40;5.57;;;11.20;82.10;;;;;;5055679;28;20212;-76